Terminal Aerodrome Forecast
Issued by NWS

Home | Current Version | Previous Version | Text Only | Print | Product List | Glossary On
Versions: 1 2 3 4 5 6 7 8 9 10 11 12 13 14 15 16 17 18 19 20 21 22 23 24 25 26 27 28 29 30 31 32 33 34 35 36 37 38 39 40
000
FTUS41 KRNK 010537
TAFBCB
TAF
KBCB 010537Z 0106/0206 00000KT 5SM BR SKC
     FM010930 00000KT 2SM BR SCT003
      TEMPO 0110/0112 3/4SM BR BKN003
     FM011330 26003KT P6SM SCT025
     FM011700 28003KT P6SM BKN040=

USA.gov is the U.S. government's official web portal to all federal, state and local government web resources and services.